sim
Sign-in with your pilot id or email,
or register
Callsign
Passwort

Schedule Details

Flight Number: OEO1515
Departure: Dortmund Airport (EDLW) at 13:15
Arrival: Munich Airport (EDDM) at 14:30

Weather Information
Getting current METAR information for EDLW 190850Z 05005KT 020V090 CAVOK 15/08 Q1020
Getting current METAR information for EDDM 190850Z 08007KT 050V120 CAVOK 14/08 Q1020 NOSIG

Schedule Frequency

Route Map